sensor_id;sensor_type;location;lat;lon;timestamp;temperature;humidity
17381;DHT22;8808;52.478;13.378;2023-05-29T00:01:20;15.90;99.90
17381;DHT22;8808;52.478;13.378;2023-05-29T00:03:49;15.80;99.90
17381;DHT22;8808;52.478;13.378;2023-05-29T00:06:16;15.70;99.90
17381;DHT22;8808;52.478;13.378;2023-05-29T00:08:45;15.90;99.90
17381;DHT22;8808;52.478;13.378;2023-05-29T00:11:13;16.00;99.90
17381;DHT22;8808;52.478;13.378;2023-05-29T00:13:40;15.90;99.90
17381;DHT22;8808;52.478;13.378;2023-05-29T00:16:07;15.90;99.90
17381;DHT22;8808;52.478;13.378;2023-05-29T00:18:35;15.90;99.90
17381;DHT22;8808;52.478;13.378;2023-05-29T00:21:10;15.90;99.90
17381;DHT22;8808;52.478;13.378;2023-05-29T00:23:37;15.90;99.90
17381;DHT22;8808;52.478;13.378;2023-05-29T00:26:05;15.80;99.90
17381;DHT22;8808;52.478;13.378;2023-05-29T00:28:33;15.80;99.90
17381;DHT22;8808;52.478;13.378;2023-05-29T00:31:00;15.70;99.90
17381;DHT22;8808;52.478;13.378;2023-05-29T00:33:27;15.60;99.90
17381;DHT22;8808;52.478;13.378;2023-05-29T00:35:54;15.60;99.90
17381;DHT22;8808;52.478;13.378;2023-05-29T00:38:22;15.50;99.90
17381;DHT22;8808;52.478;13.378;2023-05-29T00:40:49;15.40;99.90
17381;DHT22;8808;52.478;13.378;2023-05-29T00:43:17;15.30;99.90
17381;DHT22;8808;52.478;13.378;2023-05-29T00:45:44;15.30;99.90
17381;DHT22;8808;52.478;13.378;2023-05-29T00:48:11;15.40;99.90
17381;DHT22;8808;52.478;13.378;2023-05-29T00:50:39;15.40;99.90
17381;DHT22;8808;52.478;13.378;2023-05-29T00:53:06;15.30;99.90
17381;DHT22;8808;52.478;13.378;2023-05-29T00:55:33;15.20;99.90
17381;DHT22;8808;52.478;13.378;2023-05-29T00:58:01;15.20;99.90
17381;DHT22;8808;52.478;13.378;2023-05-29T01:00:29;15.20;99.90
17381;DHT22;8808;52.478;13.378;2023-05-29T01:02:59;15.30;99.90
17381;DHT22;8808;52.478;13.378;2023-05-29T01:05:29;15.40;99.90
17381;DHT22;8808;52.478;13.378;2023-05-29T01:07:56;15.30;99.90
17381;DHT22;8808;52.478;13.378;2023-05-29T01:10:23;15.30;99.90
17381;DHT22;8808;52.478;13.378;2023-05-29T01:12:55;15.20;99.90
17381;DHT22;8808;52.478;13.378;2023-05-29T01:15:33;15.20;99.90
17381;DHT22;8808;52.478;13.378;2023-05-29T01:18:19;15.10;99.90
17381;DHT22;8808;52.478;13.378;2023-05-29T01:20:52;15.10;99.90
17381;DHT22;8808;52.478;13.378;2023-05-29T01:23:34;15.00;99.90
17381;DHT22;8808;52.478;13.378;2023-05-29T01:26:14;15.00;99.90
17381;DHT22;8808;52.478;13.378;2023-05-29T01:28:48;14.90;99.90
17381;DHT22;8808;52.478;13.378;2023-05-29T01:31:18;14.80;99.90
17381;DHT22;8808;52.478;13.378;2023-05-29T01:33:51;14.60;99.90
17381;DHT22;8808;52.478;13.378;2023-05-29T01:36:19;14.70;99.90
17381;DHT22;8808;52.478;13.378;2023-05-29T01:38:46;14.70;99.90
17381;DHT22;8808;52.478;13.378;2023-05-29T01:41:14;14.70;99.90
17381;DHT22;8808;52.478;13.378;2023-05-29T01:43:41;14.80;99.90
17381;DHT22;8808;52.478;13.378;2023-05-29T01:46:10;14.70;99.90
17381;DHT22;8808;52.478;13.378;2023-05-29T01:48:37;14.60;99.90
17381;DHT22;8808;52.478;13.378;2023-05-29T01:51:05;14.70;99.90
17381;DHT22;8808;52.478;13.378;2023-05-29T01:53:32;14.60;99.90
17381;DHT22;8808;52.478;13.378;2023-05-29T01:55:59;14.70;99.90
17381;DHT22;8808;52.478;13.378;2023-05-29T01:58:27;14.80;99.90
17381;DHT22;8808;52.478;13.378;2023-05-29T02:00:56;14.70;99.90
17381;DHT22;8808;52.478;13.378;2023-05-29T02:03:24;14.60;99.90
17381;DHT22;8808;52.478;13.378;2023-05-29T02:05:54;14.60;99.90
17381;DHT22;8808;52.478;13.378;2023-05-29T02:08:21;14.50;99.90
17381;DHT22;8808;52.478;13.378;2023-05-29T02:10:48;14.50;99.90
17381;DHT22;8808;52.478;13.378;2023-05-29T02:13:16;14.50;99.90
17381;DHT22;8808;52.478;13.378;2023-05-29T02:15:43;14.40;99.90
17381;DHT22;8808;52.478;13.378;2023-05-29T02:18:12;14.30;99.90
17381;DHT22;8808;52.478;13.378;2023-05-29T02:20:41;14.20;99.90
17381;DHT22;8808;52.478;13.378;2023-05-29T02:23:08;14.40;99.90
17381;DHT22;8808;52.478;13.378;2023-05-29T02:25:35;14.50;99.90
17381;DHT22;8808;52.478;13.378;2023-05-29T02:28:02;14.40;99.90
17381;DHT22;8808;52.478;13.378;2023-05-29T02:30:30;14.40;99.90
17381;DHT22;8808;52.478;13.378;2023-05-29T02:32:57;14.40;99.90
17381;DHT22;8808;52.478;13.378;2023-05-29T02:35:24;14.40;99.90
17381;DHT22;8808;52.478;13.378;2023-05-29T02:37:53;14.40;99.90
17381;DHT22;8808;52.478;13.378;2023-05-29T02:40:20;14.40;99.90
17381;DHT22;8808;52.478;13.378;2023-05-29T02:42:47;14.50;99.90
17381;DHT22;8808;52.478;13.378;2023-05-29T02:45:14;14.50;99.90
17381;DHT22;8808;52.478;13.378;2023-05-29T02:47:41;14.30;99.90
17381;DHT22;8808;52.478;13.378;2023-05-29T02:50:09;14.20;99.90
17381;DHT22;8808;52.478;13.378;2023-05-29T02:52:36;14.30;99.90
17381;DHT22;8808;52.478;13.378;2023-05-29T02:55:05;14.30;99.90
17381;DHT22;8808;52.478;13.378;2023-05-29T02:57:32;14.30;99.90
17381;DHT22;8808;52.478;13.378;2023-05-29T02:59:59;14.40;99.90
17381;DHT22;8808;52.478;13.378;2023-05-29T03:02:26;14.20;99.90
17381;DHT22;8808;52.478;13.378;2023-05-29T03:04:53;14.20;99.90
17381;DHT22;8808;52.478;13.378;2023-05-29T03:07:20;13.80;99.90
17381;DHT22;8808;52.478;13.378;2023-05-29T03:09:47;13.70;99.90
17381;DHT22;8808;52.478;13.378;2023-05-29T03:12:15;13.70;99.90
17381;DHT22;8808;52.478;13.378;2023-05-29T03:14:44;13.70;99.90
17381;DHT22;8808;52.478;13.378;2023-05-29T03:17:11;13.60;99.90
17381;DHT22;8808;52.478;13.378;2023-05-29T03:19:38;13.60;99.90
17381;DHT22;8808;52.478;13.378;2023-05-29T03:22:05;13.60;99.90
17381;DHT22;8808;52.478;13.378;2023-05-29T03:24:32;13.70;99.90
17381;DHT22;8808;52.478;13.378;2023-05-29T03:27:00;13.90;99.90
17381;DHT22;8808;52.478;13.378;2023-05-29T03:29:30;13.90;99.90
17381;DHT22;8808;52.478;13.378;2023-05-29T03:31:58;13.90;99.90
17381;DHT22;8808;52.478;13.378;2023-05-29T03:34:24;14.00;99.90
17381;DHT22;8808;52.478;13.378;2023-05-29T03:36:52;14.10;99.90
17381;DHT22;8808;52.478;13.378;2023-05-29T03:39:19;14.00;99.90
17381;DHT22;8808;52.478;13.378;2023-05-29T03:41:46;13.80;99.90
17381;DHT22;8808;52.478;13.378;2023-05-29T03:44:13;13.80;99.90
17381;DHT22;8808;52.478;13.378;2023-05-29T03:46:41;13.80;99.90
17381;DHT22;8808;52.478;13.378;2023-05-29T03:49:08;13.70;99.90
17381;DHT22;8808;52.478;13.378;2023-05-29T03:51:35;13.80;99.90
17381;DHT22;8808;52.478;13.378;2023-05-29T03:54:03;13.90;99.90
17381;DHT22;8808;52.478;13.378;2023-05-29T03:56:30;14.00;99.90
17381;DHT22;8808;52.478;13.378;2023-05-29T03:58:57;14.10;99.90
17381;DHT22;8808;52.478;13.378;2023-05-29T04:01:24;14.10;99.90
17381;DHT22;8808;52.478;13.378;2023-05-29T04:03:52;14.20;99.90
17381;DHT22;8808;52.478;13.378;2023-05-29T04:06:19;14.40;99.90
17381;DHT22;8808;52.478;13.378;2023-05-29T04:08:47;14.40;99.90
17381;DHT22;8808;52.478;13.378;2023-05-29T04:11:14;14.50;99.90
17381;DHT22;8808;52.478;13.378;2023-05-29T04:13:41;14.50;99.90
17381;DHT22;8808;52.478;13.378;2023-05-29T04:16:08;14.60;99.90
17381;DHT22;8808;52.478;13.378;2023-05-29T04:18:35;14.70;99.90
17381;DHT22;8808;52.478;13.378;2023-05-29T04:21:04;14.80;99.90
17381;DHT22;8808;52.478;13.378;2023-05-29T04:23:31;14.90;99.90
17381;DHT22;8808;52.478;13.378;2023-05-29T04:25:58;14.90;99.90
17381;DHT22;8808;52.478;13.378;2023-05-29T04:28:26;14.80;99.90
17381;DHT22;8808;52.478;13.378;2023-05-29T04:30:53;15.00;99.90
17381;DHT22;8808;52.478;13.378;2023-05-29T04:33:22;14.90;99.90
17381;DHT22;8808;52.478;13.378;2023-05-29T04:35:49;14.80;99.90
17381;DHT22;8808;52.478;13.378;2023-05-29T04:38:18;14.80;99.90
17381;DHT22;8808;52.478;13.378;2023-05-29T04:40:50;14.90;99.90
17381;DHT22;8808;52.478;13.378;2023-05-29T04:43:17;15.00;99.90
17381;DHT22;8808;52.478;13.378;2023-05-29T04:45:44;15.20;99.90
17381;DHT22;8808;52.478;13.378;2023-05-29T04:48:11;15.30;99.90
17381;DHT22;8808;52.478;13.378;2023-05-29T04:50:38;15.20;99.90
17381;DHT22;8808;52.478;13.378;2023-05-29T04:53:06;15.30;99.90
17381;DHT22;8808;52.478;13.378;2023-05-29T04:55:35;15.50;99.90
17381;DHT22;8808;52.478;13.378;2023-05-29T04:58:02;15.50;99.90
17381;DHT22;8808;52.478;13.378;2023-05-29T05:00:29;15.50;99.90
17381;DHT22;8808;52.478;13.378;2023-05-29T05:02:56;15.50;99.90
17381;DHT22;8808;52.478;13.378;2023-05-29T05:05:22;15.50;99.90
17381;DHT22;8808;52.478;13.378;2023-05-29T05:07:49;15.60;99.90
17381;DHT22;8808;52.478;13.378;2023-05-29T05:10:17;15.70;99.90
17381;DHT22;8808;52.478;13.378;2023-05-29T05:12:45;15.80;99.90
17381;DHT22;8808;52.478;13.378;2023-05-29T05:15:12;15.90;99.90
17381;DHT22;8808;52.478;13.378;2023-05-29T05:17:39;16.00;99.90
17381;DHT22;8808;52.478;13.378;2023-05-29T05:20:07;15.90;99.90
17381;DHT22;8808;52.478;13.378;2023-05-29T05:22:34;15.90;99.90
17381;DHT22;8808;52.478;13.378;2023-05-29T05:25:01;15.90;99.90
17381;DHT22;8808;52.478;13.378;2023-05-29T05:27:29;16.00;99.90
17381;DHT22;8808;52.478;13.378;2023-05-29T05:29:57;16.20;99.90
17381;DHT22;8808;52.478;13.378;2023-05-29T05:32:25;16.40;99.90
17381;DHT22;8808;52.478;13.378;2023-05-29T05:34:52;16.80;99.90
17381;DHT22;8808;52.478;13.378;2023-05-29T05:37:19;17.00;99.90
17381;DHT22;8808;52.478;13.378;2023-05-29T05:39:48;17.20;99.90
17381;DHT22;8808;52.478;13.378;2023-05-29T05:42:16;17.10;99.90
17381;DHT22;8808;52.478;13.378;2023-05-29T05:44:43;17.10;99.90
17381;DHT22;8808;52.478;13.378;2023-05-29T05:47:11;17.30;99.90
17381;DHT22;8808;52.478;13.378;2023-05-29T05:49:39;17.30;99.90
17381;DHT22;8808;52.478;13.378;2023-05-29T05:52:06;17.40;99.90
17381;DHT22;8808;52.478;13.378;2023-05-29T05:54:33;17.50;99.90
17381;DHT22;8808;52.478;13.378;2023-05-29T05:57:00;17.50;99.90
17381;DHT22;8808;52.478;13.378;2023-05-29T05:59:28;17.40;99.90
17381;DHT22;8808;52.478;13.378;2023-05-29T06:01:55;17.50;99.90
17381;DHT22;8808;52.478;13.378;2023-05-29T06:04:24;17.60;98.70
17381;DHT22;8808;52.478;13.378;2023-05-29T06:06:51;17.60;99.00
17381;DHT22;8808;52.478;13.378;2023-05-29T06:09:18;18.00;97.90
17381;DHT22;8808;52.478;13.378;2023-05-29T06:11:45;17.80;98.40
17381;DHT22;8808;52.478;13.378;2023-05-29T06:14:13;17.90;97.60
17381;DHT22;8808;52.478;13.378;2023-05-29T06:16:40;18.10;97.70
17381;DHT22;8808;52.478;13.378;2023-05-29T06:19:07;18.10;97.20
17381;DHT22;8808;52.478;13.378;2023-05-29T06:21:35;17.80;96.90
17381;DHT22;8808;52.478;13.378;2023-05-29T06:24:03;18.00;96.50
17381;DHT22;8808;52.478;13.378;2023-05-29T06:26:30;18.10;96.40
17381;DHT22;8808;52.478;13.378;2023-05-29T06:28:57;18.30;96.00
17381;DHT22;8808;52.478;13.378;2023-05-29T06:31:24;18.50;95.50
17381;DHT22;8808;52.478;13.378;2023-05-29T06:33:51;18.80;94.20
17381;DHT22;8808;52.478;13.378;2023-05-29T06:36:18;19.10;94.50
17381;DHT22;8808;52.478;13.378;2023-05-29T06:38:47;19.30;97.50
17381;DHT22;8808;52.478;13.378;2023-05-29T06:41:14;19.10;92.50
17381;DHT22;8808;52.478;13.378;2023-05-29T06:43:42;18.80;93.10
17381;DHT22;8808;52.478;13.378;2023-05-29T06:46:09;18.90;92.80
17381;DHT22;8808;52.478;13.378;2023-05-29T06:48:36;18.80;91.90
17381;DHT22;8808;52.478;13.378;2023-05-29T06:51:04;18.80;91.60
17381;DHT22;8808;52.478;13.378;2023-05-29T06:53:34;19.00;92.60
17381;DHT22;8808;52.478;13.378;2023-05-29T06:56:03;19.20;91.90
17381;DHT22;8808;52.478;13.378;2023-05-29T06:58:31;19.10;91.90
17381;DHT22;8808;52.478;13.378;2023-05-29T07:00:58;19.10;91.80
17381;DHT22;8808;52.478;13.378;2023-05-29T07:03:26;19.30;92.20
17381;DHT22;8808;52.478;13.378;2023-05-29T07:05:53;19.40;92.60
17381;DHT22;8808;52.478;13.378;2023-05-29T07:08:20;19.40;91.50
17381;DHT22;8808;52.478;13.378;2023-05-29T07:10:47;19.30;90.80
17381;DHT22;8808;52.478;13.378;2023-05-29T07:13:16;19.20;90.40
17381;DHT22;8808;52.478;13.378;2023-05-29T07:15:44;19.30;90.40
17381;DHT22;8808;52.478;13.378;2023-05-29T07:18:11;19.30;89.90
17381;DHT22;8808;52.478;13.378;2023-05-29T07:20:38;19.60;88.50
17381;DHT22;8808;52.478;13.378;2023-05-29T07:23:05;19.50;89.40
17381;DHT22;8808;52.478;13.378;2023-05-29T07:25:32;22.80;91.70
17381;DHT22;8808;52.478;13.378;2023-05-29T07:27:59;23.90;86.80
17381;DHT22;8808;52.478;13.378;2023-05-29T07:30:27;21.80;82.40
17381;DHT22;8808;52.478;13.378;2023-05-29T07:32:54;21.20;84.10
17381;DHT22;8808;52.478;13.378;2023-05-29T07:35:21;20.20;83.30
17381;DHT22;8808;52.478;13.378;2023-05-29T07:37:48;19.80;85.50
17381;DHT22;8808;52.478;13.378;2023-05-29T07:40:18;19.60;87.30
17381;DHT22;8808;52.478;13.378;2023-05-29T07:42:45;20.80;84.80
17381;DHT22;8808;52.478;13.378;2023-05-29T07:45:12;20.50;83.50
17381;DHT22;8808;52.478;13.378;2023-05-29T07:47:40;20.30;84.60
17381;DHT22;8808;52.478;13.378;2023-05-29T07:50:08;21.10;82.80
17381;DHT22;8808;52.478;13.378;2023-05-29T07:52:36;20.90;87.50
17381;DHT22;8808;52.478;13.378;2023-05-29T07:55:03;21.20;84.90
17381;DHT22;8808;52.478;13.378;2023-05-29T07:57:30;23.40;86.50
17381;DHT22;8808;52.478;13.378;2023-05-29T07:59:57;22.50;79.80
17381;DHT22;8808;52.478;13.378;2023-05-29T08:02:24;21.00;79.30
17381;DHT22;8808;52.478;13.378;2023-05-29T08:04:53;21.30;89.80
17381;DHT22;8808;52.478;13.378;2023-05-29T08:07:20;23.10;85.00
17381;DHT22;8808;52.478;13.378;2023-05-29T08:09:47;23.50;83.70
17381;DHT22;8808;52.478;13.378;2023-05-29T08:12:14;24.40;82.30
17381;DHT22;8808;52.478;13.378;2023-05-29T08:14:41;24.00;82.50
17381;DHT22;8808;52.478;13.378;2023-05-29T08:17:08;23.70;81.80
17381;DHT22;8808;52.478;13.378;2023-05-29T08:19:35;22.20;75.80
17381;DHT22;8808;52.478;13.378;2023-05-29T08:22:03;23.60;83.90
17381;DHT22;8808;52.478;13.378;2023-05-29T08:24:31;23.50;74.20
17381;DHT22;8808;52.478;13.378;2023-05-29T08:26:58;21.50;75.80
17381;DHT22;8808;52.478;13.378;2023-05-29T08:29:25;20.20;80.10
17381;DHT22;8808;52.478;13.378;2023-05-29T08:31:52;20.20;80.70
17381;DHT22;8808;52.478;13.378;2023-05-29T08:34:19;20.50;80.60
17381;DHT22;8808;52.478;13.378;2023-05-29T08:36:46;20.80;80.60
17381;DHT22;8808;52.478;13.378;2023-05-29T08:39:15;21.20;80.70
17381;DHT22;8808;52.478;13.378;2023-05-29T08:41:48;21.70;79.70
17381;DHT22;8808;52.478;13.378;2023-05-29T08:44:21;21.80;78.70
17381;DHT22;8808;52.478;13.378;2023-05-29T08:46:54;21.90;76.70
17381;DHT22;8808;52.478;13.378;2023-05-29T08:49:21;21.80;76.90
17381;DHT22;8808;52.478;13.378;2023-05-29T08:51:56;21.70;77.00
17381;DHT22;8808;52.478;13.378;2023-05-29T08:54:26;21.50;77.90
17381;DHT22;8808;52.478;13.378;2023-05-29T08:56:53;21.50;77.80
17381;DHT22;8808;52.478;13.378;2023-05-29T08:59:20;21.80;78.50
17381;DHT22;8808;52.478;13.378;2023-05-29T09:01:47;21.90;77.30
17381;DHT22;8808;52.478;13.378;2023-05-29T09:04:15;22.10;77.80
17381;DHT22;8808;52.478;13.378;2023-05-29T09:06:42;22.30;77.40
17381;DHT22;8808;52.478;13.378;2023-05-29T09:09:11;22.00;76.70
17381;DHT22;8808;52.478;13.378;2023-05-29T09:11:39;22.10;77.90
17381;DHT22;8808;52.478;13.378;2023-05-29T09:14:11;22.40;77.40
17381;DHT22;8808;52.478;13.378;2023-05-29T09:16:58;22.30;76.30
17381;DHT22;8808;52.478;13.378;2023-05-29T09:19:25;22.50;75.90
17381;DHT22;8808;52.478;13.378;2023-05-29T09:22:00;22.60;77.20
17381;DHT22;8808;52.478;13.378;2023-05-29T09:24:28;22.70;77.40
17381;DHT22;8808;52.478;13.378;2023-05-29T09:26:56;23.00;76.00
17381;DHT22;8808;52.478;13.378;2023-05-29T09:29:25;23.00;74.10
17381;DHT22;8808;52.478;13.378;2023-05-29T09:31:52;22.80;74.90
17381;DHT22;8808;52.478;13.378;2023-05-29T09:34:19;22.90;74.80
17381;DHT22;8808;52.478;13.378;2023-05-29T09:36:49;23.20;74.00
17381;DHT22;8808;52.478;13.378;2023-05-29T09:39:17;23.40;74.90
17381;DHT22;8808;52.478;13.378;2023-05-29T09:41:44;23.60;73.10
17381;DHT22;8808;52.478;13.378;2023-05-29T09:44:14;23.60;72.90
17381;DHT22;8808;52.478;13.378;2023-05-29T09:46:41;23.60;74.40
17381;DHT22;8808;52.478;13.378;2023-05-29T09:49:11;23.40;74.10
17381;DHT22;8808;52.478;13.378;2023-05-29T09:51:39;23.60;73.10
17381;DHT22;8808;52.478;13.378;2023-05-29T09:54:13;23.50;73.20
17381;DHT22;8808;52.478;13.378;2023-05-29T09:56:42;23.60;76.00
17381;DHT22;8808;52.478;13.378;2023-05-29T09:59:11;23.70;71.90
17381;DHT22;8808;52.478;13.378;2023-05-29T10:01:41;23.10;74.30
17381;DHT22;8808;52.478;13.378;2023-05-29T10:04:10;23.10;73.30
17381;DHT22;8808;52.478;13.378;2023-05-29T10:06:38;22.90;74.00
17381;DHT22;8808;52.478;13.378;2023-05-29T10:09:09;23.00;74.40
17381;DHT22;8808;52.478;13.378;2023-05-29T10:11:38;23.20;73.10
17381;DHT22;8808;52.478;13.378;2023-05-29T10:14:10;23.20;72.90
17381;DHT22;8808;52.478;13.378;2023-05-29T10:16:42;22.80;72.90
17381;DHT22;8808;52.478;13.378;2023-05-29T10:19:12;23.20;77.20
17381;DHT22;8808;52.478;13.378;2023-05-29T10:21:40;23.20;72.10
17381;DHT22;8808;52.478;13.378;2023-05-29T10:24:08;23.20;71.70
17381;DHT22;8808;52.478;13.378;2023-05-29T10:26:39;23.30;70.80
17381;DHT22;8808;52.478;13.378;2023-05-29T10:29:12;23.90;70.40
17381;DHT22;8808;52.478;13.378;2023-05-29T10:31:48;23.90;70.00
17381;DHT22;8808;52.478;13.378;2023-05-29T10:34:25;23.60;69.60
17381;DHT22;8808;52.478;13.378;2023-05-29T10:37:02;23.60;69.70
17381;DHT22;8808;52.478;13.378;2023-05-29T10:39:31;24.00;72.60
17381;DHT22;8808;52.478;13.378;2023-05-29T10:41:59;23.90;68.10
17381;DHT22;8808;52.478;13.378;2023-05-29T10:44:38;24.10;68.80
17381;DHT22;8808;52.478;13.378;2023-05-29T10:47:08;24.50;69.20
17381;DHT22;8808;52.478;13.378;2023-05-29T10:49:37;24.40;70.60
17381;DHT22;8808;52.478;13.378;2023-05-29T10:52:06;24.50;66.90
17381;DHT22;8808;52.478;13.378;2023-05-29T10:54:53;24.60;68.60
17381;DHT22;8808;52.478;13.378;2023-05-29T10:57:21;24.40;69.80
17381;DHT22;8808;52.478;13.378;2023-05-29T11:00:02;24.70;67.90
17381;DHT22;8808;52.478;13.378;2023-05-29T11:02:36;24.50;66.50
17381;DHT22;8808;52.478;13.378;2023-05-29T11:05:23;24.30;66.70
17381;DHT22;8808;52.478;13.378;2023-05-29T11:08:01;24.60;72.00
17381;DHT22;8808;52.478;13.378;2023-05-29T11:10:56;24.60;67.50
17381;DHT22;8808;52.478;13.378;2023-05-29T11:13:24;24.40;61.20
17381;DHT22;8808;52.478;13.378;2023-05-29T11:16:16;24.40;63.80
17381;DHT22;8808;52.478;13.378;2023-05-29T11:18:47;24.50;62.50
17381;DHT22;8808;52.478;13.378;2023-05-29T11:21:31;24.70;68.20
17381;DHT22;8808;52.478;13.378;2023-05-29T11:24:01;24.20;67.40
17381;DHT22;8808;52.478;13.378;2023-05-29T11:26:31;24.00;70.40
17381;DHT22;8808;52.478;13.378;2023-05-29T11:28:59;23.80;66.90
17381;DHT22;8808;52.478;13.378;2023-05-29T11:31:27;23.40;66.30
17381;DHT22;8808;52.478;13.378;2023-05-29T11:34:00;23.20;66.00
17381;DHT22;8808;52.478;13.378;2023-05-29T11:36:30;23.00;66.00
17381;DHT22;8808;52.478;13.378;2023-05-29T11:38:58;23.30;64.70
17381;DHT22;8808;52.478;13.378;2023-05-29T11:41:26;23.80;65.10
17381;DHT22;8808;52.478;13.378;2023-05-29T11:43:59;23.50;64.30
17381;DHT22;8808;52.478;13.378;2023-05-29T11:46:28;23.80;66.20
17381;DHT22;8808;52.478;13.378;2023-05-29T11:48:59;23.70;66.00
17381;DHT22;8808;52.478;13.378;2023-05-29T11:51:26;23.40;66.80
17381;DHT22;8808;52.478;13.378;2023-05-29T11:53:53;23.20;66.40
17381;DHT22;8808;52.478;13.378;2023-05-29T11:56:24;23.00;67.80
17381;DHT22;8808;52.478;13.378;2023-05-29T11:58:52;22.90;67.80
17381;DHT22;8808;52.478;13.378;2023-05-29T12:01:22;22.80;69.00
17381;DHT22;8808;52.478;13.378;2023-05-29T12:03:50;22.70;69.80
17381;DHT22;8808;52.478;13.378;2023-05-29T12:06:32;23.20;68.40
17381;DHT22;8808;52.478;13.378;2023-05-29T12:09:00;23.50;68.00
17381;DHT22;8808;52.478;13.378;2023-05-29T12:11:28;23.70;66.90
17381;DHT22;8808;52.478;13.378;2023-05-29T12:13:56;24.20;69.50
17381;DHT22;8808;52.478;13.378;2023-05-29T12:16:23;24.30;71.10
17381;DHT22;8808;52.478;13.378;2023-05-29T12:18:51;23.90;67.00
17381;DHT22;8808;52.478;13.378;2023-05-29T12:21:20;23.50;67.70
17381;DHT22;8808;52.478;13.378;2023-05-29T12:23:51;23.60;67.20
17381;DHT22;8808;52.478;13.378;2023-05-29T12:26:21;23.80;65.20
17381;DHT22;8808;52.478;13.378;2023-05-29T12:28:50;24.00;70.60
17381;DHT22;8808;52.478;13.378;2023-05-29T12:31:26;24.20;66.00
17381;DHT22;8808;52.478;13.378;2023-05-29T12:33:59;24.10;66.10
17381;DHT22;8808;52.478;13.378;2023-05-29T12:36:26;24.00;65.30
17381;DHT22;8808;52.478;13.378;2023-05-29T12:38:55;24.00;64.80
17381;DHT22;8808;52.478;13.378;2023-05-29T12:41:25;23.90;65.20
17381;DHT22;8808;52.478;13.378;2023-05-29T12:43:54;23.70;66.20
17381;DHT22;8808;52.478;13.378;2023-05-29T12:46:22;23.30;66.50
17381;DHT22;8808;52.478;13.378;2023-05-29T12:48:52;23.30;68.90
17381;DHT22;8808;52.478;13.378;2023-05-29T12:51:22;23.20;66.00
17381;DHT22;8808;52.478;13.378;2023-05-29T12:53:50;23.20;67.10
17381;DHT22;8808;52.478;13.378;2023-05-29T12:56:21;23.20;66.70
17381;DHT22;8808;52.478;13.378;2023-05-29T12:58:49;23.20;65.00
17381;DHT22;8808;52.478;13.378;2023-05-29T13:01:16;22.70;65.90
17381;DHT22;8808;52.478;13.378;2023-05-29T13:03:44;22.90;66.50
17381;DHT22;8808;52.478;13.378;2023-05-29T13:06:11;23.20;65.10
17381;DHT22;8808;52.478;13.378;2023-05-29T13:08:38;23.60;66.30
17381;DHT22;8808;52.478;13.378;2023-05-29T13:11:05;23.50;65.90
17381;DHT22;8808;52.478;13.378;2023-05-29T13:13:33;23.50;67.90
17381;DHT22;8808;52.478;13.378;2023-05-29T13:16:00;23.00;65.30
17381;DHT22;8808;52.478;13.378;2023-05-29T13:18:27;23.00;66.60
17381;DHT22;8808;52.478;13.378;2023-05-29T13:20:54;22.90;65.90
17381;DHT22;8808;52.478;13.378;2023-05-29T13:23:21;22.80;67.00
17381;DHT22;8808;52.478;13.378;2023-05-29T13:25:48;22.50;66.50
17381;DHT22;8808;52.478;13.378;2023-05-29T13:28:16;22.30;67.10
17381;DHT22;8808;52.478;13.378;2023-05-29T13:30:45;22.40;67.40
17381;DHT22;8808;52.478;13.378;2023-05-29T13:33:12;22.80;67.10
17381;DHT22;8808;52.478;13.378;2023-05-29T13:35:39;23.20;67.30
17381;DHT22;8808;52.478;13.378;2023-05-29T13:38:06;23.10;65.30
17381;DHT22;8808;52.478;13.378;2023-05-29T13:40:33;23.30;65.70
17381;DHT22;8808;52.478;13.378;2023-05-29T13:43:00;23.20;63.90
17381;DHT22;8808;52.478;13.378;2023-05-29T13:45:27;23.00;62.90
17381;DHT22;8808;52.478;13.378;2023-05-29T13:47:56;23.10;63.20
17381;DHT22;8808;52.478;13.378;2023-05-29T13:50:23;23.00;62.10
17381;DHT22;8808;52.478;13.378;2023-05-29T13:52:51;23.10;65.10
17381;DHT22;8808;52.478;13.378;2023-05-29T13:55:18;23.40;65.70
17381;DHT22;8808;52.478;13.378;2023-05-29T13:57:45;23.30;65.00
17381;DHT22;8808;52.478;13.378;2023-05-29T14:00:13;23.10;65.20
17381;DHT22;8808;52.478;13.378;2023-05-29T14:02:40;22.60;66.50
17381;DHT22;8808;52.478;13.378;2023-05-29T14:05:08;22.60;67.80
17381;DHT22;8808;52.478;13.378;2023-05-29T14:07:36;23.10;68.10
17381;DHT22;8808;52.478;13.378;2023-05-29T14:10:04;22.90;68.90
17381;DHT22;8808;52.478;13.378;2023-05-29T14:12:31;22.70;66.30
17381;DHT22;8808;52.478;13.378;2023-05-29T14:14:58;22.70;68.60
17381;DHT22;8808;52.478;13.378;2023-05-29T14:17:25;22.60;66.90
17381;DHT22;8808;52.478;13.378;2023-05-29T14:19:52;22.70;66.60
17381;DHT22;8808;52.478;13.378;2023-05-29T14:22:21;23.40;73.80
17381;DHT22;8808;52.478;13.378;2023-05-29T14:24:48;23.30;65.80
17381;DHT22;8808;52.478;13.378;2023-05-29T14:27:15;23.50;71.00
17381;DHT22;8808;52.478;13.378;2023-05-29T14:29:42;23.40;68.00
17381;DHT22;8808;52.478;13.378;2023-05-29T14:32:11;23.40;66.10
17381;DHT22;8808;52.478;13.378;2023-05-29T14:34:38;23.30;67.70
17381;DHT22;8808;52.478;13.378;2023-05-29T14:37:05;23.20;67.00
17381;DHT22;8808;52.478;13.378;2023-05-29T14:39:34;22.70;65.70
17381;DHT22;8808;52.478;13.378;2023-05-29T14:42:01;22.60;64.70
17381;DHT22;8808;52.478;13.378;2023-05-29T14:44:28;22.90;66.30
17381;DHT22;8808;52.478;13.378;2023-05-29T14:46:55;22.90;65.80
17381;DHT22;8808;52.478;13.378;2023-05-29T14:49:22;23.00;66.30
17381;DHT22;8808;52.478;13.378;2023-05-29T14:51:49;22.70;64.30
17381;DHT22;8808;52.478;13.378;2023-05-29T14:54:16;22.60;65.40
17381;DHT22;8808;52.478;13.378;2023-05-29T14:56:44;22.60;66.20
17381;DHT22;8808;52.478;13.378;2023-05-29T14:59:11;22.70;65.80
17381;DHT22;8808;52.478;13.378;2023-05-29T15:01:38;22.90;66.80
17381;DHT22;8808;52.478;13.378;2023-05-29T15:04:05;23.00;70.90
17381;DHT22;8808;52.478;13.378;2023-05-29T15:06:32;23.50;66.30
17381;DHT22;8808;52.478;13.378;2023-05-29T15:08:59;23.10;64.10
17381;DHT22;8808;52.478;13.378;2023-05-29T15:11:26;22.70;65.30
17381;DHT22;8808;52.478;13.378;2023-05-29T15:13:54;22.60;65.60
17381;DHT22;8808;52.478;13.378;2023-05-29T15:16:22;22.40;64.70
17381;DHT22;8808;52.478;13.378;2023-05-29T15:18:49;22.40;65.40
17381;DHT22;8808;52.478;13.378;2023-05-29T15:21:16;22.50;65.20
17381;DHT22;8808;52.478;13.378;2023-05-29T15:23:43;22.50;64.40
17381;DHT22;8808;52.478;13.378;2023-05-29T15:26:10;22.30;64.80
17381;DHT22;8808;52.478;13.378;2023-05-29T15:28:37;22.20;64.50
17381;DHT22;8808;52.478;13.378;2023-05-29T15:31:05;22.30;64.70
17381;DHT22;8808;52.478;13.378;2023-05-29T15:33:32;22.40;65.80
17381;DHT22;8808;52.478;13.378;2023-05-29T15:35:59;22.40;64.70
17381;DHT22;8808;52.478;13.378;2023-05-29T15:38:26;22.40;65.50